Terminal Aerodrome Forecast
Issued by NWS Wilmington, OH

Home | Current Version | Previous Version | Text Only | Print | Product List | Glossary On
Versions: 1 2 3 4 5 6 7 8 9 10 11 12 13 14 15 16 17
511
FTUS41 KILN 291734
TAFCMH
TAF
KCMH 291734Z 2918/3018 10004KT P6SM VCSH BKN040
     FM291900 09004KT 4SM -SHRA BR VCTS OVC025CB
     FM292300 06005KT 5SM BR VCSH OVC022
     FM300800 06006KT 4SM -SHRA BR OVC015
     FM301400 10006KT P6SM VCSH BKN018=

USA.gov is the U.S. government's official web portal to all federal, state and local government web resources and services.